sensor_id;sensor_type;location;lat;lon;timestamp;P1;durP1;ratioP1;P2;durP2;ratioP2
9836;SDS011;4957;51.412;6.724;2022-07-29T00:01:35;7.83;;;1.47;;
9836;SDS011;4957;51.412;6.724;2022-07-29T00:04:01;7.57;;;1.53;;
9836;SDS011;4957;51.412;6.724;2022-07-29T00:06:26;7.40;;;1.50;;
9836;SDS011;4957;51.412;6.724;2022-07-29T00:08:52;3.40;;;1.30;;
9836;SDS011;4957;51.412;6.724;2022-07-29T00:11:18;3.57;;;1.80;;
9836;SDS011;4957;51.412;6.724;2022-07-29T00:13:43;6.43;;;1.17;;
9836;SDS011;4957;51.412;6.724;2022-07-29T00:16:09;6.37;;;1.70;;
9836;SDS011;4957;51.412;6.724;2022-07-29T00:18:35;2.03;;;1.30;;
9836;SDS011;4957;51.412;6.724;2022-07-29T00:21:00;6.07;;;1.80;;
9836;SDS011;4957;51.412;6.724;2022-07-29T00:23:26;4.00;;;1.40;;
9836;SDS011;4957;51.412;6.724;2022-07-29T00:25:52;3.57;;;1.40;;
9836;SDS011;4957;51.412;6.724;2022-07-29T00:28:17;2.23;;;1.37;;
9836;SDS011;4957;51.412;6.724;2022-07-29T00:30:43;5.37;;;1.30;;
9836;SDS011;4957;51.412;6.724;2022-07-29T00:33:09;10.77;;;1.30;;
9836;SDS011;4957;51.412;6.724;2022-07-29T00:35:35;6.30;;;1.50;;
9836;SDS011;4957;51.412;6.724;2022-07-29T00:38:10;3.70;;;1.50;;
9836;SDS011;4957;51.412;6.724;2022-07-29T00:40:37;5.53;;;1.57;;
9836;SDS011;4957;51.412;6.724;2022-07-29T00:43:03;4.20;;;1.43;;
9836;SDS011;4957;51.412;6.724;2022-07-29T00:45:29;1.63;;;1.20;;
9836;SDS011;4957;51.412;6.724;2022-07-29T00:47:55;3.77;;;1.40;;
9836;SDS011;4957;51.412;6.724;2022-07-29T00:50:21;4.37;;;1.30;;
9836;SDS011;4957;51.412;6.724;2022-07-29T00:52:47;2.13;;;1.23;;
9836;SDS011;4957;51.412;6.724;2022-07-29T00:55:14;5.10;;;1.23;;
9836;SDS011;4957;51.412;6.724;2022-07-29T00:57:41;5.70;;;1.40;;
9836;SDS011;4957;51.412;6.724;2022-07-29T01:00:08;6.00;;;1.63;;
9836;SDS011;4957;51.412;6.724;2022-07-29T01:02:36;3.63;;;1.13;;
9836;SDS011;4957;51.412;6.724;2022-07-29T01:05:02;9.50;;;1.40;;
9836;SDS011;4957;51.412;6.724;2022-07-29T01:07:29;6.00;;;1.90;;
9836;SDS011;4957;51.412;6.724;2022-07-29T01:09:56;5.47;;;1.33;;
9836;SDS011;4957;51.412;6.724;2022-07-29T01:12:24;2.50;;;1.37;;
9836;SDS011;4957;51.412;6.724;2022-07-29T01:14:51;2.77;;;1.40;;
9836;SDS011;4957;51.412;6.724;2022-07-29T01:30:03;4.17;;;1.43;;
9836;SDS011;4957;51.412;6.724;2022-07-29T01:32:31;2.90;;;1.17;;
9836;SDS011;4957;51.412;6.724;2022-07-29T01:40:22;7.23;;;1.50;;
9836;SDS011;4957;51.412;6.724;2022-07-29T01:43:03;6.57;;;1.20;;
9836;SDS011;4957;51.412;6.724;2022-07-29T01:48:39;3.03;;;1.43;;
9836;SDS011;4957;51.412;6.724;2022-07-29T01:51:11;5.30;;;1.63;;
9836;SDS011;4957;51.412;6.724;2022-07-29T01:53:51;2.33;;;1.10;;
9836;SDS011;4957;51.412;6.724;2022-07-29T01:56:24;3.30;;;1.60;;
9836;SDS011;4957;51.412;6.724;2022-07-29T01:58:54;5.03;;;1.40;;
9836;SDS011;4957;51.412;6.724;2022-07-29T02:01:22;2.90;;;1.40;;
9836;SDS011;4957;51.412;6.724;2022-07-29T02:03:50;2.90;;;1.30;;
9836;SDS011;4957;51.412;6.724;2022-07-29T02:06:19;5.23;;;1.70;;
9836;SDS011;4957;51.412;6.724;2022-07-29T02:08:47;7.00;;;1.30;;
9836;SDS011;4957;51.412;6.724;2022-07-29T02:11:14;7.20;;;1.47;;
9836;SDS011;4957;51.412;6.724;2022-07-29T02:13:40;3.97;;;1.30;;
9836;SDS011;4957;51.412;6.724;2022-07-29T02:16:07;4.43;;;1.50;;
9836;SDS011;4957;51.412;6.724;2022-07-29T02:18:35;1.53;;;1.33;;
9836;SDS011;4957;51.412;6.724;2022-07-29T02:21:04;4.00;;;1.67;;
9836;SDS011;4957;51.412;6.724;2022-07-29T02:23:30;11.60;;;2.23;;
9836;SDS011;4957;51.412;6.724;2022-07-29T02:25:57;7.83;;;1.73;;
9836;SDS011;4957;51.412;6.724;2022-07-29T02:28:24;4.57;;;1.50;;
9836;SDS011;4957;51.412;6.724;2022-07-29T02:30:52;5.07;;;1.30;;
9836;SDS011;4957;51.412;6.724;2022-07-29T02:33:20;3.50;;;1.10;;
9836;SDS011;4957;51.412;6.724;2022-07-29T02:35:48;2.17;;;1.40;;
9836;SDS011;4957;51.412;6.724;2022-07-29T02:38:16;5.90;;;1.67;;
9836;SDS011;4957;51.412;6.724;2022-07-29T02:41:08;5.30;;;1.20;;
9836;SDS011;4957;51.412;6.724;2022-07-29T02:43:36;3.43;;;1.40;;
9836;SDS011;4957;51.412;6.724;2022-07-29T02:46:04;4.53;;;1.33;;
9836;SDS011;4957;51.412;6.724;2022-07-29T02:48:37;3.13;;;0.97;;
9836;SDS011;4957;51.412;6.724;2022-07-29T02:51:12;2.17;;;1.10;;
9836;SDS011;4957;51.412;6.724;2022-07-29T02:53:47;5.00;;;1.27;;
9836;SDS011;4957;51.412;6.724;2022-07-29T02:56:16;9.70;;;1.20;;
9836;SDS011;4957;51.412;6.724;2022-07-29T02:58:52;4.10;;;1.07;;
9836;SDS011;4957;51.412;6.724;2022-07-29T03:01:20;4.63;;;0.83;;
9836;SDS011;4957;51.412;6.724;2022-07-29T03:03:48;2.37;;;1.10;;
9836;SDS011;4957;51.412;6.724;2022-07-29T03:06:17;1.23;;;0.97;;
9836;SDS011;4957;51.412;6.724;2022-07-29T03:08:44;3.07;;;0.93;;
9836;SDS011;4957;51.412;6.724;2022-07-29T03:11:11;1.87;;;1.23;;
9836;SDS011;4957;51.412;6.724;2022-07-29T03:13:37;4.57;;;1.20;;
9836;SDS011;4957;51.412;6.724;2022-07-29T03:16:04;4.03;;;1.20;;
9836;SDS011;4957;51.412;6.724;2022-07-29T03:18:31;4.70;;;1.30;;
9836;SDS011;4957;51.412;6.724;2022-07-29T03:20:57;2.30;;;1.00;;
9836;SDS011;4957;51.412;6.724;2022-07-29T03:23:23;0.90;;;0.80;;
9836;SDS011;4957;51.412;6.724;2022-07-29T03:25:51;3.53;;;1.20;;
9836;SDS011;4957;51.412;6.724;2022-07-29T03:28:16;3.97;;;1.20;;
9836;SDS011;4957;51.412;6.724;2022-07-29T03:30:42;1.67;;;0.87;;
9836;SDS011;4957;51.412;6.724;2022-07-29T03:33:08;10.97;;;1.60;;
9836;SDS011;4957;51.412;6.724;2022-07-29T03:35:34;2.60;;;1.20;;
9836;SDS011;4957;51.412;6.724;2022-07-29T03:37:59;3.50;;;1.50;;
9836;SDS011;4957;51.412;6.724;2022-07-29T03:40:48;5.70;;;1.10;;
9836;SDS011;4957;51.412;6.724;2022-07-29T03:43:16;4.17;;;1.30;;
9836;SDS011;4957;51.412;6.724;2022-07-29T03:45:44;1.93;;;1.03;;
9836;SDS011;4957;51.412;6.724;2022-07-29T03:48:13;2.93;;;1.20;;
9836;SDS011;4957;51.412;6.724;2022-07-29T03:50:42;2.63;;;1.10;;
9836;SDS011;4957;51.412;6.724;2022-07-29T03:53:09;4.73;;;1.47;;
9836;SDS011;4957;51.412;6.724;2022-07-29T03:55:42;3.23;;;1.10;;
9836;SDS011;4957;51.412;6.724;2022-07-29T03:58:11;3.60;;;1.40;;
9836;SDS011;4957;51.412;6.724;2022-07-29T04:00:38;4.97;;;1.77;;
9836;SDS011;4957;51.412;6.724;2022-07-29T04:03:05;6.60;;;2.10;;
9836;SDS011;4957;51.412;6.724;2022-07-29T04:05:31;13.67;;;2.60;;
9836;SDS011;4957;51.412;6.724;2022-07-29T04:07:57;9.00;;;2.40;;
9836;SDS011;4957;51.412;6.724;2022-07-29T04:10:23;21.03;;;2.40;;
9836;SDS011;4957;51.412;6.724;2022-07-29T04:12:49;11.87;;;2.30;;
9836;SDS011;4957;51.412;6.724;2022-07-29T04:15:15;5.57;;;1.70;;
9836;SDS011;4957;51.412;6.724;2022-07-29T04:17:41;3.60;;;1.93;;
9836;SDS011;4957;51.412;6.724;2022-07-29T04:20:06;4.50;;;1.90;;
9836;SDS011;4957;51.412;6.724;2022-07-29T04:22:32;6.13;;;1.70;;
9836;SDS011;4957;51.412;6.724;2022-07-29T04:24:58;2.93;;;1.47;;
9836;SDS011;4957;51.412;6.724;2022-07-29T04:27:24;3.73;;;2.00;;
9836;SDS011;4957;51.412;6.724;2022-07-29T04:29:50;2.17;;;1.90;;
9836;SDS011;4957;51.412;6.724;2022-07-29T04:32:16;8.03;;;2.63;;
9836;SDS011;4957;51.412;6.724;2022-07-29T04:34:41;6.10;;;2.77;;
9836;SDS011;4957;51.412;6.724;2022-07-29T04:37:07;4.80;;;2.47;;
9836;SDS011;4957;51.412;6.724;2022-07-29T04:39:33;4.13;;;2.30;;
9836;SDS011;4957;51.412;6.724;2022-07-29T04:41:58;8.10;;;2.63;;
9836;SDS011;4957;51.412;6.724;2022-07-29T04:44:24;7.97;;;2.70;;
9836;SDS011;4957;51.412;6.724;2022-07-29T04:46:50;4.33;;;2.70;;
9836;SDS011;4957;51.412;6.724;2022-07-29T04:49:16;7.37;;;2.83;;
9836;SDS011;4957;51.412;6.724;2022-07-29T04:51:41;7.33;;;2.87;;
9836;SDS011;4957;51.412;6.724;2022-07-29T04:54:07;6.13;;;2.83;;
9836;SDS011;4957;51.412;6.724;2022-07-29T04:56:33;9.70;;;3.63;;
9836;SDS011;4957;51.412;6.724;2022-07-29T04:58:58;10.50;;;4.07;;
9836;SDS011;4957;51.412;6.724;2022-07-29T05:01:24;7.73;;;2.87;;
9836;SDS011;4957;51.412;6.724;2022-07-29T05:03:50;6.07;;;2.70;;
9836;SDS011;4957;51.412;6.724;2022-07-29T05:06:15;6.60;;;2.60;;
9836;SDS011;4957;51.412;6.724;2022-07-29T05:08:41;5.17;;;3.03;;
9836;SDS011;4957;51.412;6.724;2022-07-29T05:11:06;8.23;;;2.80;;
9836;SDS011;4957;51.412;6.724;2022-07-29T05:13:32;5.80;;;2.70;;
9836;SDS011;4957;51.412;6.724;2022-07-29T05:15:58;4.60;;;2.80;;
9836;SDS011;4957;51.412;6.724;2022-07-29T05:18:24;4.77;;;2.53;;
9836;SDS011;4957;51.412;6.724;2022-07-29T05:20:50;12.50;;;3.07;;
9836;SDS011;4957;51.412;6.724;2022-07-29T05:23:16;12.50;;;3.10;;
9836;SDS011;4957;51.412;6.724;2022-07-29T05:25:42;15.27;;;3.63;;
9836;SDS011;4957;51.412;6.724;2022-07-29T05:28:08;9.40;;;3.27;;
9836;SDS011;4957;51.412;6.724;2022-07-29T05:30:34;5.57;;;2.70;;
9836;SDS011;4957;51.412;6.724;2022-07-29T05:32:59;6.90;;;2.97;;
9836;SDS011;4957;51.412;6.724;2022-07-29T05:35:25;9.30;;;2.90;;
9836;SDS011;4957;51.412;6.724;2022-07-29T05:37:51;7.13;;;2.60;;
9836;SDS011;4957;51.412;6.724;2022-07-29T05:40:17;6.63;;;2.67;;
9836;SDS011;4957;51.412;6.724;2022-07-29T05:42:42;4.57;;;2.10;;
9836;SDS011;4957;51.412;6.724;2022-07-29T05:45:08;7.60;;;3.10;;
9836;SDS011;4957;51.412;6.724;2022-07-29T05:47:34;5.47;;;2.73;;
9836;SDS011;4957;51.412;6.724;2022-07-29T05:50:00;6.00;;;3.17;;
9836;SDS011;4957;51.412;6.724;2022-07-29T05:52:26;8.90;;;2.70;;
9836;SDS011;4957;51.412;6.724;2022-07-29T05:54:52;6.37;;;2.87;;
9836;SDS011;4957;51.412;6.724;2022-07-29T05:57:22;7.57;;;2.80;;
9836;SDS011;4957;51.412;6.724;2022-07-29T05:59:49;8.20;;;2.93;;
9836;SDS011;4957;51.412;6.724;2022-07-29T06:02:15;4.20;;;2.73;;
9836;SDS011;4957;51.412;6.724;2022-07-29T06:04:42;11.97;;;3.57;;
9836;SDS011;4957;51.412;6.724;2022-07-29T06:07:08;3.50;;;2.47;;
9836;SDS011;4957;51.412;6.724;2022-07-29T06:09:34;6.00;;;2.70;;
9836;SDS011;4957;51.412;6.724;2022-07-29T06:12:00;10.43;;;3.73;;
9836;SDS011;4957;51.412;6.724;2022-07-29T06:14:26;6.63;;;2.80;;
9836;SDS011;4957;51.412;6.724;2022-07-29T06:16:53;14.97;;;3.23;;
9836;SDS011;4957;51.412;6.724;2022-07-29T06:19:19;10.30;;;3.30;;
9836;SDS011;4957;51.412;6.724;2022-07-29T06:21:45;7.53;;;3.30;;
9836;SDS011;4957;51.412;6.724;2022-07-29T06:24:11;6.83;;;3.17;;
9836;SDS011;4957;51.412;6.724;2022-07-29T06:26:38;6.97;;;2.93;;
9836;SDS011;4957;51.412;6.724;2022-07-29T06:29:05;10.30;;;3.23;;
9836;SDS011;4957;51.412;6.724;2022-07-29T06:31:31;11.93;;;3.23;;
9836;SDS011;4957;51.412;6.724;2022-07-29T06:33:57;8.23;;;3.43;;
9836;SDS011;4957;51.412;6.724;2022-07-29T06:36:23;8.03;;;3.53;;
9836;SDS011;4957;51.412;6.724;2022-07-29T06:38:48;10.33;;;3.23;;
9836;SDS011;4957;51.412;6.724;2022-07-29T06:41:14;9.50;;;3.50;;
9836;SDS011;4957;51.412;6.724;2022-07-29T06:43:41;9.77;;;3.40;;
9836;SDS011;4957;51.412;6.724;2022-07-29T06:46:08;10.10;;;3.17;;
9836;SDS011;4957;51.412;6.724;2022-07-29T06:48:36;14.50;;;3.37;;
9836;SDS011;4957;51.412;6.724;2022-07-29T06:51:02;6.87;;;3.60;;
9836;SDS011;4957;51.412;6.724;2022-07-29T06:53:29;7.03;;;2.93;;
9836;SDS011;4957;51.412;6.724;2022-07-29T06:55:56;9.13;;;3.10;;
9836;SDS011;4957;51.412;6.724;2022-07-29T06:58:23;6.10;;;3.43;;
9836;SDS011;4957;51.412;6.724;2022-07-29T07:00:49;6.33;;;2.97;;
9836;SDS011;4957;51.412;6.724;2022-07-29T07:03:15;8.57;;;3.70;;
9836;SDS011;4957;51.412;6.724;2022-07-29T07:05:42;5.63;;;3.00;;
9836;SDS011;4957;51.412;6.724;2022-07-29T07:08:08;9.50;;;3.70;;
9836;SDS011;4957;51.412;6.724;2022-07-29T07:10:33;6.77;;;2.83;;
9836;SDS011;4957;51.412;6.724;2022-07-29T07:12:59;7.53;;;3.20;;
9836;SDS011;4957;51.412;6.724;2022-07-29T07:15:25;7.47;;;3.30;;
9836;SDS011;4957;51.412;6.724;2022-07-29T07:17:52;9.70;;;3.40;;
9836;SDS011;4957;51.412;6.724;2022-07-29T07:20:18;4.63;;;3.10;;
9836;SDS011;4957;51.412;6.724;2022-07-29T07:22:43;6.23;;;3.60;;
9836;SDS011;4957;51.412;6.724;2022-07-29T07:25:09;5.63;;;3.10;;
9836;SDS011;4957;51.412;6.724;2022-07-29T07:27:36;4.47;;;3.10;;
9836;SDS011;4957;51.412;6.724;2022-07-29T07:30:03;7.80;;;3.27;;
9836;SDS011;4957;51.412;6.724;2022-07-29T07:32:30;6.40;;;3.77;;
9836;SDS011;4957;51.412;6.724;2022-07-29T07:34:57;8.03;;;3.53;;
9836;SDS011;4957;51.412;6.724;2022-07-29T07:37:23;5.00;;;3.70;;
9836;SDS011;4957;51.412;6.724;2022-07-29T07:39:49;6.10;;;3.57;;
9836;SDS011;4957;51.412;6.724;2022-07-29T07:42:16;6.17;;;4.03;;
9836;SDS011;4957;51.412;6.724;2022-07-29T07:44:42;5.43;;;3.80;;
9836;SDS011;4957;51.412;6.724;2022-07-29T07:47:08;7.33;;;4.10;;
9836;SDS011;4957;51.412;6.724;2022-07-29T07:49:34;8.17;;;4.10;;
9836;SDS011;4957;51.412;6.724;2022-07-29T07:51:59;9.37;;;4.03;;
9836;SDS011;4957;51.412;6.724;2022-07-29T07:54:25;6.80;;;4.03;;
9836;SDS011;4957;51.412;6.724;2022-07-29T07:56:51;5.70;;;3.90;;
9836;SDS011;4957;51.412;6.724;2022-07-29T07:59:17;7.33;;;3.60;;
9836;SDS011;4957;51.412;6.724;2022-07-29T08:01:42;6.90;;;4.73;;
9836;SDS011;4957;51.412;6.724;2022-07-29T08:04:08;14.47;;;5.23;;
9836;SDS011;4957;51.412;6.724;2022-07-29T08:06:34;9.70;;;4.13;;
9836;SDS011;4957;51.412;6.724;2022-07-29T08:09:02;6.80;;;3.67;;
9836;SDS011;4957;51.412;6.724;2022-07-29T08:11:29;7.87;;;4.63;;
9836;SDS011;4957;51.412;6.724;2022-07-29T08:13:54;11.60;;;4.53;;
9836;SDS011;4957;51.412;6.724;2022-07-29T08:16:20;10.70;;;5.27;;
9836;SDS011;4957;51.412;6.724;2022-07-29T08:18:46;6.27;;;4.60;;
9836;SDS011;4957;51.412;6.724;2022-07-29T08:21:13;8.70;;;4.47;;
9836;SDS011;4957;51.412;6.724;2022-07-29T08:23:40;6.27;;;4.50;;
9836;SDS011;4957;51.412;6.724;2022-07-29T08:26:18;8.97;;;4.17;;
9836;SDS011;4957;51.412;6.724;2022-07-29T08:28:45;7.70;;;4.60;;
9836;SDS011;4957;51.412;6.724;2022-07-29T08:31:14;8.70;;;5.23;;
9836;SDS011;4957;51.412;6.724;2022-07-29T08:33:40;10.50;;;4.93;;
9836;SDS011;4957;51.412;6.724;2022-07-29T08:36:06;9.40;;;5.00;;
9836;SDS011;4957;51.412;6.724;2022-07-29T08:38:32;13.67;;;5.50;;
9836;SDS011;4957;51.412;6.724;2022-07-29T08:41:01;16.50;;;6.30;;
9836;SDS011;4957;51.412;6.724;2022-07-29T08:43:28;16.20;;;6.13;;
9836;SDS011;4957;51.412;6.724;2022-07-29T08:45:54;11.77;;;6.77;;
9836;SDS011;4957;51.412;6.724;2022-07-29T08:48:20;14.87;;;5.57;;
9836;SDS011;4957;51.412;6.724;2022-07-29T08:50:50;15.73;;;6.13;;
9836;SDS011;4957;51.412;6.724;2022-07-29T08:53:20;14.53;;;5.47;;
9836;SDS011;4957;51.412;6.724;2022-07-29T08:55:48;13.27;;;6.20;;
9836;SDS011;4957;51.412;6.724;2022-07-29T08:58:15;11.13;;;5.93;;
9836;SDS011;4957;51.412;6.724;2022-07-29T09:00:43;12.47;;;5.90;;
9836;SDS011;4957;51.412;6.724;2022-07-29T09:03:15;13.90;;;5.40;;
9836;SDS011;4957;51.412;6.724;2022-07-29T09:05:43;15.40;;;6.30;;
9836;SDS011;4957;51.412;6.724;2022-07-29T09:08:11;12.23;;;5.43;;
9836;SDS011;4957;51.412;6.724;2022-07-29T09:10:38;11.23;;;5.97;;
9836;SDS011;4957;51.412;6.724;2022-07-29T09:13:04;18.67;;;6.00;;
9836;SDS011;4957;51.412;6.724;2022-07-29T09:15:30;18.83;;;6.20;;
9836;SDS011;4957;51.412;6.724;2022-07-29T09:17:56;10.73;;;5.70;;
9836;SDS011;4957;51.412;6.724;2022-07-29T09:20:23;14.97;;;6.07;;
9836;SDS011;4957;51.412;6.724;2022-07-29T09:22:50;11.70;;;5.27;;
9836;SDS011;4957;51.412;6.724;2022-07-29T09:28:06;15.97;;;5.73;;
9836;SDS011;4957;51.412;6.724;2022-07-29T09:33:23;9.63;;;4.93;;
9836;SDS011;4957;51.412;6.724;2022-07-29T09:36:03;13.57;;;5.27;;
9836;SDS011;4957;51.412;6.724;2022-07-29T09:38:31;6.47;;;4.90;;
9836;SDS011;4957;51.412;6.724;2022-07-29T09:40:57;14.83;;;5.13;;
9836;SDS011;4957;51.412;6.724;2022-07-29T09:43:26;12.10;;;5.30;;
9836;SDS011;4957;51.412;6.724;2022-07-29T09:45:52;15.70;;;6.03;;
9836;SDS011;4957;51.412;6.724;2022-07-29T09:48:19;9.07;;;5.60;;
9836;SDS011;4957;51.412;6.724;2022-07-29T09:50:47;12.20;;;4.60;;
9836;SDS011;4957;51.412;6.724;2022-07-29T09:53:29;15.17;;;5.40;;
9836;SDS011;4957;51.412;6.724;2022-07-29T09:56:02;9.47;;;5.17;;
9836;SDS011;4957;51.412;6.724;2022-07-29T09:58:29;15.33;;;5.17;;
9836;SDS011;4957;51.412;6.724;2022-07-29T10:00:56;16.03;;;6.27;;
9836;SDS011;4957;51.412;6.724;2022-07-29T10:03:22;6.57;;;3.80;;
9836;SDS011;4957;51.412;6.724;2022-07-29T10:06:04;13.20;;;4.57;;
9836;SDS011;4957;51.412;6.724;2022-07-29T10:08:31;10.60;;;5.07;;
9836;SDS011;4957;51.412;6.724;2022-07-29T10:11:10;13.50;;;4.70;;
9836;SDS011;4957;51.412;6.724;2022-07-29T10:13:37;11.10;;;4.60;;
9836;SDS011;4957;51.412;6.724;2022-07-29T10:16:04;14.67;;;5.13;;
9836;SDS011;4957;51.412;6.724;2022-07-29T10:18:31;13.37;;;5.70;;
9836;SDS011;4957;51.412;6.724;2022-07-29T10:20:58;8.90;;;4.93;;
9836;SDS011;4957;51.412;6.724;2022-07-29T10:23:26;8.63;;;4.70;;
9836;SDS011;4957;51.412;6.724;2022-07-29T10:25:52;9.33;;;5.00;;
9836;SDS011;4957;51.412;6.724;2022-07-29T10:28:19;13.27;;;4.97;;
9836;SDS011;4957;51.412;6.724;2022-07-29T10:30:44;11.10;;;4.73;;
9836;SDS011;4957;51.412;6.724;2022-07-29T10:36:02;8.17;;;4.10;;
9836;SDS011;4957;51.412;6.724;2022-07-29T10:46:41;5.93;;;3.40;;
9836;SDS011;4957;51.412;6.724;2022-07-29T10:49:26;9.43;;;3.20;;
9836;SDS011;4957;51.412;6.724;2022-07-29T10:51:55;6.33;;;3.20;;
9836;SDS011;4957;51.412;6.724;2022-07-29T10:55:05;6.50;;;3.17;;
9836;SDS011;4957;51.412;6.724;2022-07-29T11:07:27;9.80;;;3.33;;
9836;SDS011;4957;51.412;6.724;2022-07-29T11:15:06;8.23;;;3.27;;
9836;SDS011;4957;51.412;6.724;2022-07-29T11:23:00;7.50;;;3.17;;
9836;SDS011;4957;51.412;6.724;2022-07-29T11:25:26;6.43;;;2.83;;
9836;SDS011;4957;51.412;6.724;2022-07-29T11:27:52;3.67;;;3.03;;
9836;SDS011;4957;51.412;6.724;2022-07-29T11:30:49;8.10;;;3.00;;
9836;SDS011;4957;51.412;6.724;2022-07-29T11:33:32;9.30;;;3.80;;
9836;SDS011;4957;51.412;6.724;2022-07-29T11:36:12;5.57;;;3.00;;
9836;SDS011;4957;51.412;6.724;2022-07-29T11:38:39;4.70;;;2.97;;
9836;SDS011;4957;51.412;6.724;2022-07-29T11:41:21;5.33;;;2.40;;
9836;SDS011;4957;51.412;6.724;2022-07-29T11:43:51;8.00;;;2.70;;
9836;SDS011;4957;51.412;6.724;2022-07-29T11:49:18;4.07;;;2.87;;
9836;SDS011;4957;51.412;6.724;2022-07-29T11:51:55;5.83;;;3.00;;
9836;SDS011;4957;51.412;6.724;2022-07-29T11:54:26;6.80;;;2.90;;
9836;SDS011;4957;51.412;6.724;2022-07-29T11:56:59;3.87;;;2.83;;
9836;SDS011;4957;51.412;6.724;2022-07-29T11:59:25;10.10;;;3.57;;
9836;SDS011;4957;51.412;6.724;2022-07-29T12:01:55;12.27;;;3.50;;
9836;SDS011;4957;51.412;6.724;2022-07-29T12:04:22;14.10;;;3.40;;
9836;SDS011;4957;51.412;6.724;2022-07-29T12:06:57;6.10;;;3.00;;
9836;SDS011;4957;51.412;6.724;2022-07-29T12:09:23;7.63;;;3.23;;
9836;SDS011;4957;51.412;6.724;2022-07-29T12:11:55;6.20;;;2.97;;
9836;SDS011;4957;51.412;6.724;2022-07-29T12:14:28;6.57;;;2.67;;
9836;SDS011;4957;51.412;6.724;2022-07-29T12:16:54;4.77;;;2.30;;
9836;SDS011;4957;51.412;6.724;2022-07-29T12:19:21;6.73;;;2.30;;
9836;SDS011;4957;51.412;6.724;2022-07-29T12:21:47;4.73;;;2.40;;
9836;SDS011;4957;51.412;6.724;2022-07-29T12:24:17;10.27;;;2.63;;
9836;SDS011;4957;51.412;6.724;2022-07-29T12:26:49;7.30;;;2.70;;
9836;SDS011;4957;51.412;6.724;2022-07-29T12:29:19;5.13;;;2.40;;
9836;SDS011;4957;51.412;6.724;2022-07-29T12:31:45;5.90;;;2.40;;
9836;SDS011;4957;51.412;6.724;2022-07-29T12:34:12;7.63;;;2.10;;
9836;SDS011;4957;51.412;6.724;2022-07-29T12:36:40;6.43;;;2.80;;
9836;SDS011;4957;51.412;6.724;2022-07-29T12:39:07;7.03;;;2.30;;
9836;SDS011;4957;51.412;6.724;2022-07-29T12:41:34;5.80;;;1.97;;
9836;SDS011;4957;51.412;6.724;2022-07-29T12:44:00;5.63;;;1.93;;
9836;SDS011;4957;51.412;6.724;2022-07-29T12:46:26;8.67;;;2.40;;
9836;SDS011;4957;51.412;6.724;2022-07-29T12:48:52;7.80;;;2.73;;
9836;SDS011;4957;51.412;6.724;2022-07-29T12:51:35;5.03;;;2.30;;
9836;SDS011;4957;51.412;6.724;2022-07-29T12:54:12;4.30;;;2.30;;
9836;SDS011;4957;51.412;6.724;2022-07-29T12:56:40;8.63;;;2.87;;
9836;SDS011;4957;51.412;6.724;2022-07-29T12:59:11;8.33;;;3.07;;
9836;SDS011;4957;51.412;6.724;2022-07-29T13:01:38;4.67;;;1.90;;
9836;SDS011;4957;51.412;6.724;2022-07-29T13:04:04;6.13;;;2.27;;
9836;SDS011;4957;51.412;6.724;2022-07-29T13:06:37;5.13;;;2.37;;
9836;SDS011;4957;51.412;6.724;2022-07-29T13:09:11;4.17;;;1.93;;
9836;SDS011;4957;51.412;6.724;2022-07-29T13:14:09;9.87;;;2.50;;
9836;SDS011;4957;51.412;6.724;2022-07-29T13:19:32;4.57;;;2.20;;
9836;SDS011;4957;51.412;6.724;2022-07-29T13:22:06;5.57;;;2.30;;
9836;SDS011;4957;51.412;6.724;2022-07-29T13:24:52;3.90;;;2.63;;
9836;SDS011;4957;51.412;6.724;2022-07-29T13:27:20;6.30;;;2.20;;
9836;SDS011;4957;51.412;6.724;2022-07-29T13:29:48;4.33;;;2.33;;
9836;SDS011;4957;51.412;6.724;2022-07-29T13:32:16;9.50;;;2.40;;
9836;SDS011;4957;51.412;6.724;2022-07-29T13:34:42;7.43;;;2.87;;
9836;SDS011;4957;51.412;6.724;2022-07-29T13:37:08;7.43;;;2.63;;
9836;SDS011;4957;51.412;6.724;2022-07-29T13:39:34;6.97;;;2.13;;
9836;SDS011;4957;51.412;6.724;2022-07-29T13:41:59;6.93;;;2.33;;
9836;SDS011;4957;51.412;6.724;2022-07-29T13:44:25;7.63;;;2.50;;
9836;SDS011;4957;51.412;6.724;2022-07-29T13:46:51;10.27;;;2.53;;
9836;SDS011;4957;51.412;6.724;2022-07-29T13:49:17;6.80;;;2.63;;
9836;SDS011;4957;51.412;6.724;2022-07-29T13:51:43;7.50;;;2.83;;
9836;SDS011;4957;51.412;6.724;2022-07-29T13:54:08;3.83;;;1.93;;
9836;SDS011;4957;51.412;6.724;2022-07-29T13:56:34;7.47;;;3.23;;
9836;SDS011;4957;51.412;6.724;2022-07-29T13:59:00;7.40;;;2.40;;
9836;SDS011;4957;51.412;6.724;2022-07-29T14:01:26;4.33;;;2.20;;
9836;SDS011;4957;51.412;6.724;2022-07-29T14:03:52;5.27;;;2.80;;
9836;SDS011;4957;51.412;6.724;2022-07-29T14:06:18;5.90;;;2.53;;
9836;SDS011;4957;51.412;6.724;2022-07-29T14:08:44;4.00;;;2.10;;
9836;SDS011;4957;51.412;6.724;2022-07-29T14:11:10;7.57;;;2.67;;
9836;SDS011;4957;51.412;6.724;2022-07-29T14:13:35;6.27;;;2.90;;
9836;SDS011;4957;51.412;6.724;2022-07-29T14:16:01;7.10;;;2.33;;
9836;SDS011;4957;51.412;6.724;2022-07-29T14:18:27;7.97;;;3.07;;
9836;SDS011;4957;51.412;6.724;2022-07-29T14:20:53;8.40;;;4.13;;
9836;SDS011;4957;51.412;6.724;2022-07-29T14:23:18;9.20;;;3.83;;
9836;SDS011;4957;51.412;6.724;2022-07-29T14:25:44;7.63;;;3.47;;
9836;SDS011;4957;51.412;6.724;2022-07-29T14:28:10;6.63;;;2.83;;
9836;SDS011;4957;51.412;6.724;2022-07-29T14:30:35;9.20;;;2.70;;
9836;SDS011;4957;51.412;6.724;2022-07-29T14:33:01;5.90;;;2.80;;
9836;SDS011;4957;51.412;6.724;2022-07-29T14:35:28;7.43;;;3.10;;
9836;SDS011;4957;51.412;6.724;2022-07-29T14:37:53;7.50;;;2.77;;
9836;SDS011;4957;51.412;6.724;2022-07-29T14:40:19;6.60;;;2.80;;
9836;SDS011;4957;51.412;6.724;2022-07-29T14:42:45;6.67;;;3.17;;
9836;SDS011;4957;51.412;6.724;2022-07-29T14:45:10;6.87;;;2.50;;
9836;SDS011;4957;51.412;6.724;2022-07-29T14:47:37;8.77;;;2.60;;
9836;SDS011;4957;51.412;6.724;2022-07-29T14:50:03;3.60;;;2.13;;
9836;SDS011;4957;51.412;6.724;2022-07-29T14:52:29;4.17;;;2.10;;
9836;SDS011;4957;51.412;6.724;2022-07-29T14:54:55;5.37;;;2.93;;
9836;SDS011;4957;51.412;6.724;2022-07-29T14:57:21;7.47;;;2.60;;
9836;SDS011;4957;51.412;6.724;2022-07-29T14:59:47;4.83;;;2.20;;
9836;SDS011;4957;51.412;6.724;2022-07-29T15:02:12;3.20;;;2.00;;
9836;SDS011;4957;51.412;6.724;2022-07-29T15:04:38;4.03;;;2.00;;
9836;SDS011;4957;51.412;6.724;2022-07-29T15:07:04;4.93;;;1.90;;
9836;SDS011;4957;51.412;6.724;2022-07-29T15:09:30;4.10;;;2.20;;
9836;SDS011;4957;51.412;6.724;2022-07-29T15:11:56;3.13;;;1.70;;
9836;SDS011;4957;51.412;6.724;2022-07-29T15:14:22;6.47;;;1.80;;
9836;SDS011;4957;51.412;6.724;2022-07-29T15:16:47;6.07;;;1.80;;
9836;SDS011;4957;51.412;6.724;2022-07-29T15:19:13;5.33;;;1.60;;
9836;SDS011;4957;51.412;6.724;2022-07-29T15:21:39;4.60;;;1.77;;
9836;SDS011;4957;51.412;6.724;2022-07-29T15:24:04;2.67;;;1.70;;
9836;SDS011;4957;51.412;6.724;2022-07-29T15:26:32;3.60;;;2.00;;
9836;SDS011;4957;51.412;6.724;2022-07-29T15:28:57;2.77;;;1.70;;
9836;SDS011;4957;51.412;6.724;2022-07-29T15:31:24;3.67;;;1.47;;
9836;SDS011;4957;51.412;6.724;2022-07-29T15:33:49;4.47;;;1.60;;
9836;SDS011;4957;51.412;6.724;2022-07-29T15:36:15;2.20;;;1.57;;
9836;SDS011;4957;51.412;6.724;2022-07-29T15:38:41;2.67;;;1.53;;
9836;SDS011;4957;51.412;6.724;2022-07-29T15:41:09;4.30;;;1.90;;
9836;SDS011;4957;51.412;6.724;2022-07-29T15:43:38;4.67;;;2.00;;
9836;SDS011;4957;51.412;6.724;2022-07-29T15:46:08;6.67;;;1.93;;
9836;SDS011;4957;51.412;6.724;2022-07-29T15:48:52;5.67;;;1.60;;
9836;SDS011;4957;51.412;6.724;2022-07-29T15:51:18;4.90;;;1.97;;
9836;SDS011;4957;51.412;6.724;2022-07-29T15:53:44;3.27;;;1.73;;
9836;SDS011;4957;51.412;6.724;2022-07-29T15:56:11;7.13;;;2.40;;
9836;SDS011;4957;51.412;6.724;2022-07-29T15:58:37;3.77;;;1.80;;
9836;SDS011;4957;51.412;6.724;2022-07-29T16:01:02;5.07;;;2.20;;
9836;SDS011;4957;51.412;6.724;2022-07-29T16:03:28;5.33;;;2.10;;
9836;SDS011;4957;51.412;6.724;2022-07-29T16:05:54;5.03;;;2.20;;
9836;SDS011;4957;51.412;6.724;2022-07-29T16:08:19;5.70;;;2.17;;
9836;SDS011;4957;51.412;6.724;2022-07-29T16:10:45;6.20;;;2.20;;
9836;SDS011;4957;51.412;6.724;2022-07-29T16:13:11;5.63;;;2.20;;
9836;SDS011;4957;51.412;6.724;2022-07-29T16:15:36;4.53;;;2.57;;
9836;SDS011;4957;51.412;6.724;2022-07-29T16:18:02;3.37;;;2.30;;
9836;SDS011;4957;51.412;6.724;2022-07-29T16:20:28;4.93;;;2.27;;
9836;SDS011;4957;51.412;6.724;2022-07-29T16:22:54;7.00;;;2.10;;